Terminal Aerodrome Forecast
Issued by NWS

Home | Current Version | Previous Version | Graphics & Text | Print | Product List | Glossary On
Versions: 1 2 3 4 5 6 7 8 9 10 11 12 13 14
000
FTUS43 KBIS 220522
TAFJMS
TAF
KJMS 220522Z 2206/2306 19005KT P6SM SCT100
     FM221100 33004KT P6SM VCFG SCT010
     FM221500 05005KT P6SM SCT015
     FM221800 08006KT P6SM SCT030 BKN150
     FM222300 09010KT P6SM VCTS BKN035 OVC120CB=

USA.gov is the U.S. government's official web portal to all federal, state and local government web resources and services.